createdAt,value
2022-08-22T00:01:50.900Z,99.90
2022-08-22T00:04:41.560Z,99.90
2022-08-22T00:07:44.511Z,99.90
2022-08-22T00:10:22.788Z,99.90
2022-08-22T00:13:05.448Z,99.90
2022-08-22T00:15:51.781Z,99.90
2022-08-22T00:18:28.693Z,99.90
2022-08-22T00:21:16.853Z,99.90
2022-08-22T00:24:07.392Z,99.90
2022-08-22T00:26:49.208Z,99.90
2022-08-22T00:29:23.778Z,99.90
2022-08-22T00:31:55.148Z,99.90
2022-08-22T00:34:26.394Z,99.90
2022-08-22T00:36:56.991Z,99.90
2022-08-22T00:39:24.337Z,99.90
2022-08-22T00:41:51.685Z,99.90
2022-08-22T00:44:41.202Z,99.90
2022-08-22T00:47:16.388Z,99.90
2022-08-22T00:50:02.048Z,99.90
2022-08-22T00:52:44.543Z,99.90
2022-08-22T00:55:34.978Z,99.90
2022-08-22T00:58:05.990Z,99.90
2022-08-22T01:00:37.980Z,99.90
2022-08-22T01:03:24.407Z,99.90
2022-08-22T01:06:04.924Z,99.90
2022-08-22T01:08:51.228Z,99.90
2022-08-22T01:11:18.566Z,99.90
2022-08-22T01:14:04.394Z,99.90
2022-08-22T01:16:34.674Z,99.90
2022-08-22T01:19:11.688Z,99.90
2022-08-22T01:21:39.093Z,99.90
2022-08-22T01:24:15.738Z,99.90
2022-08-22T01:26:45.058Z,99.90
2022-08-22T01:29:18.615Z,99.90
2022-08-22T01:32:09.872Z,99.90
2022-08-22T01:34:56.213Z,99.90
2022-08-22T01:37:26.375Z,99.90
2022-08-22T01:40:15.967Z,99.90
2022-08-22T01:42:46.440Z,99.90
2022-08-22T01:45:26.107Z,99.90
2022-08-22T01:47:57.063Z,99.90
2022-08-22T01:50:30.479Z,99.90
2022-08-22T01:53:09.923Z,99.90
2022-08-22T01:55:43.466Z,99.90
2022-08-22T01:58:19.905Z,99.90
2022-08-22T02:01:10.190Z,99.90
2022-08-22T02:03:53.490Z,99.90
2022-08-22T02:06:24.421Z,99.90
2022-08-22T02:09:21.813Z,99.90
2022-08-22T02:11:49.178Z,99.90
2022-08-22T02:14:32.860Z,99.90
2022-08-22T02:17:09.237Z,99.90
2022-08-22T02:20:03.113Z,99.90
2022-08-22T02:22:44.407Z,99.90
2022-08-22T02:25:17.028Z,99.90
2022-08-22T02:27:58.283Z,99.90
2022-08-22T02:30:28.761Z,99.90
2022-08-22T02:33:10.932Z,99.90
2022-08-22T02:36:00.504Z,99.90
2022-08-22T02:38:41.263Z,99.90
2022-08-22T02:41:14.656Z,99.90
2022-08-22T02:43:57.020Z,99.90
2022-08-22T02:46:40.030Z,99.90
2022-08-22T02:49:20.905Z,99.90
2022-08-22T02:51:51.363Z,99.90
2022-08-22T02:54:24.757Z,99.90
2022-08-22T02:57:01.683Z,99.90
2022-08-22T02:59:32.447Z,99.90
2022-08-22T03:02:19.778Z,99.90
2022-08-22T03:04:51.140Z,99.90
2022-08-22T03:07:18.507Z,99.90
2022-08-22T03:09:49.048Z,99.90
2022-08-22T03:12:16.671Z,99.90
2022-08-22T03:14:49.791Z,99.90
2022-08-22T03:17:26.737Z,99.90
2022-08-22T03:20:05.180Z,99.90
2022-08-22T03:22:37.526Z,99.90
2022-08-22T03:25:05.100Z,99.90
2022-08-22T03:27:45.381Z,99.90
2022-08-22T03:30:21.606Z,99.90
2022-08-22T03:32:55.143Z,99.90
2022-08-22T03:35:24.841Z,99.90
2022-08-22T03:37:54.224Z,99.90
2022-08-22T03:40:21.752Z,99.90
2022-08-22T03:43:17.239Z,99.90
2022-08-22T03:45:58.262Z,99.90
2022-08-22T03:48:51.172Z,99.90
2022-08-22T03:51:24.372Z,99.90
2022-08-22T03:54:07.926Z,99.90
2022-08-22T03:57:00.308Z,99.90
2022-08-22T03:59:34.456Z,99.90
2022-08-22T04:02:35.837Z,99.90
2022-08-22T04:05:15.141Z,99.90
2022-08-22T04:07:43.648Z,99.90
2022-08-22T04:10:15.807Z,99.90
2022-08-22T04:12:49.525Z,99.90
2022-08-22T04:15:35.888Z,99.90
2022-08-22T04:18:06.074Z,99.90
2022-08-22T04:20:51.995Z,99.90
2022-08-22T04:23:38.112Z,99.90
2022-08-22T04:26:12.349Z,99.90
2022-08-22T04:28:52.585Z,99.90
2022-08-22T04:31:27.910Z,99.90
2022-08-22T04:34:15.549Z,99.90
2022-08-22T04:36:45.997Z,99.90
2022-08-22T04:39:13.403Z,99.90
2022-08-22T04:41:43.256Z,99.90
2022-08-22T04:44:17.340Z,99.90
2022-08-22T04:46:48.866Z,99.90
2022-08-22T04:49:19.356Z,99.90
2022-08-22T04:51:48.846Z,99.90
2022-08-22T04:54:22.236Z,99.90
2022-08-22T04:56:52.937Z,99.90
2022-08-22T04:59:20.567Z,99.90
2022-08-22T05:01:47.982Z,99.90
2022-08-22T05:04:16.574Z,99.90
2022-08-22T05:06:46.551Z,99.90
2022-08-22T05:09:16.531Z,99.90
2022-08-22T05:11:47.854Z,99.90
2022-08-22T05:14:23.263Z,99.90
2022-08-22T05:16:52.875Z,99.90
2022-08-22T05:19:31.179Z,99.90
2022-08-22T05:22:00.895Z,99.90
2022-08-22T05:24:32.156Z,99.90
2022-08-22T05:27:04.121Z,99.90
2022-08-22T05:29:32.459Z,99.90
2022-08-22T05:32:02.225Z,99.90
2022-08-22T05:34:32.663Z,99.90
2022-08-22T05:37:12.618Z,99.90
2022-08-22T05:39:47.170Z,99.90
2022-08-22T05:42:22.483Z,99.90
2022-08-22T05:44:50.210Z,99.90
2022-08-22T05:47:36.530Z,99.90
2022-08-22T05:50:03.999Z,99.90
2022-08-22T05:52:37.536Z,99.90
2022-08-22T05:55:16.850Z,99.90
2022-08-22T05:57:48.647Z,99.90
2022-08-22T06:00:21.615Z,99.90
2022-08-22T06:02:49.329Z,99.90
2022-08-22T06:05:21.953Z,99.90
2022-08-22T06:07:50.359Z,99.90
2022-08-22T06:10:22.493Z,99.90
2022-08-22T06:12:50.140Z,99.90
2022-08-22T06:15:21.008Z,99.90
2022-08-22T06:17:50.628Z,99.90
2022-08-22T06:20:41.365Z,99.90
2022-08-22T06:23:12.360Z,99.90
2022-08-22T06:25:41.264Z,99.90
2022-08-22T06:28:09.977Z,99.90
2022-08-22T06:30:39.610Z,99.90
2022-08-22T06:33:12.384Z,99.90
2022-08-22T06:36:08.867Z,99.90
2022-08-22T06:38:55.047Z,99.90
2022-08-22T06:41:24.970Z,99.90
2022-08-22T06:43:53.510Z,99.90
2022-08-22T06:46:21.991Z,99.90
2022-08-22T06:48:49.579Z,99.90
2022-08-22T06:51:17.925Z,99.90
2022-08-22T06:53:48.201Z,99.90
2022-08-22T06:56:26.415Z,99.90
2022-08-22T06:58:56.281Z,99.90
2022-08-22T07:01:25.540Z,99.90
2022-08-22T07:03:55.061Z,99.90
2022-08-22T07:06:35.077Z,99.90
2022-08-22T07:09:05.763Z,99.90
2022-08-22T07:11:37.015Z,99.90
2022-08-22T07:14:06.355Z,99.90
2022-08-22T07:16:43.131Z,99.90
2022-08-22T07:19:22.202Z,99.90
2022-08-22T07:21:49.789Z,99.90
2022-08-22T07:24:19.546Z,99.90
2022-08-22T07:26:50.032Z,99.90
2022-08-22T07:29:27.669Z,99.90
2022-08-22T07:32:04.170Z,99.90
2022-08-22T07:34:41.547Z,99.90
2022-08-22T07:37:11.997Z,99.90
2022-08-22T07:39:58.332Z,99.90
2022-08-22T07:42:47.645Z,99.90
2022-08-22T07:45:23.025Z,99.90
2022-08-22T07:47:53.401Z,99.90
2022-08-22T07:50:24.613Z,99.90
2022-08-22T07:52:53.094Z,99.90
2022-08-22T07:55:25.136Z,99.90
2022-08-22T07:57:57.983Z,99.90
2022-08-22T08:00:25.705Z,99.90
2022-08-22T08:02:54.575Z,99.90
2022-08-22T08:05:27.544Z,99.90
2022-08-22T08:07:56.259Z,99.90
2022-08-22T08:10:27.415Z,99.90
2022-08-22T08:13:02.710Z,99.90
2022-08-22T08:15:32.941Z,99.90
2022-08-22T08:18:05.298Z,99.90
2022-08-22T08:20:35.152Z,99.90
2022-08-22T08:23:04.237Z,99.90
2022-08-22T08:25:33.129Z,99.90
2022-08-22T08:28:19.404Z,99.90
2022-08-22T08:30:53.088Z,99.90
2022-08-22T08:33:25.315Z,99.90
2022-08-22T08:36:02.011Z,99.90
2022-08-22T08:38:58.085Z,99.90
2022-08-22T08:41:34.765Z,99.90
2022-08-22T08:44:02.151Z,99.90
2022-08-22T08:46:32.500Z,99.90
2022-08-22T08:49:12.307Z,99.90
2022-08-22T08:51:58.997Z,99.90
2022-08-22T08:54:29.461Z,99.90
2022-08-22T08:57:10.945Z,99.90
2022-08-22T08:59:53.417Z,99.90
2022-08-22T09:02:47.212Z,99.90
2022-08-22T09:05:18.744Z,99.90
2022-08-22T09:07:56.691Z,99.90
2022-08-22T09:10:29.475Z,99.90
2022-08-22T09:13:11.843Z,99.90
2022-08-22T09:15:58.417Z,99.90
2022-08-22T09:19:02.350Z,99.90
2022-08-22T09:21:31.359Z,99.90
2022-08-22T09:24:19.282Z,99.90
2022-08-22T09:26:48.891Z,99.90
2022-08-22T09:29:16.372Z,99.90
2022-08-22T09:31:58.301Z,99.90
2022-08-22T09:34:30.466Z,99.90
2022-08-22T09:37:16.683Z,99.90
2022-08-22T09:39:45.173Z,99.90
2022-08-22T09:42:21.133Z,99.90
2022-08-22T09:45:07.090Z,99.90
2022-08-22T09:47:41.667Z,99.90
2022-08-22T09:50:22.429Z,99.90
2022-08-22T09:52:50.135Z,99.90
2022-08-22T09:55:35.362Z,99.90
2022-08-22T09:58:06.846Z,99.90
2022-08-22T10:00:45.174Z,99.90
2022-08-22T10:03:28.843Z,99.90
2022-08-22T10:06:03.009Z,99.60
2022-08-22T10:08:46.971Z,99.50
2022-08-22T10:11:20.942Z,98.90
2022-08-22T10:14:09.624Z,98.90
2022-08-22T10:16:37.195Z,97.60
2022-08-22T10:19:23.486Z,97.60
2022-08-22T10:22:12.371Z,97.80
2022-08-22T10:25:00.003Z,97.60
2022-08-22T10:27:30.121Z,96.90
2022-08-22T10:30:03.990Z,96.70
2022-08-22T10:32:57.561Z,96.70
2022-08-22T10:35:35.131Z,96.80
2022-08-22T10:38:07.540Z,96.80
2022-08-22T10:40:41.656Z,96.60
2022-08-22T10:43:18.271Z,96.40
2022-08-22T10:45:47.634Z,96.10
2022-08-22T10:48:22.707Z,95.70
2022-08-22T10:50:51.279Z,96.10
2022-08-22T10:53:30.874Z,96.60
2022-08-22T10:56:21.382Z,96.40
2022-08-22T10:58:49.165Z,96.40
2022-08-22T11:01:38.295Z,96.70
2022-08-22T11:04:12.257Z,96.50
2022-08-22T11:06:44.814Z,96.70
2022-08-22T11:09:24.915Z,96.90
2022-08-22T11:12:02.922Z,96.70
2022-08-22T11:14:38.548Z,96.10
2022-08-22T11:17:30.319Z,95.80
2022-08-22T11:20:09.611Z,95.50
2022-08-22T11:22:40.118Z,94.70
2022-08-22T11:25:14.002Z,94.80
2022-08-22T11:27:56.737Z,94.80
2022-08-22T11:30:36.459Z,94.50
2022-08-22T11:33:50.359Z,93.90
2022-08-22T11:36:26.343Z,93.40
2022-08-22T11:39:01.146Z,93.90
2022-08-22T11:41:36.507Z,94.10
2022-08-22T11:44:03.924Z,94.10
2022-08-22T11:46:31.338Z,94.10
2022-08-22T11:48:58.703Z,93.80
2022-08-22T11:51:37.885Z,94.00
2022-08-22T11:54:30.944Z,94.10
2022-08-22T11:57:07.742Z,94.10
2022-08-22T11:59:53.427Z,94.30
2022-08-22T12:02:26.239Z,93.80
2022-08-22T12:04:57.582Z,94.30
2022-08-22T12:07:29.999Z,95.10
2022-08-22T12:09:59.540Z,94.80
2022-08-22T12:12:45.596Z,94.70
2022-08-22T12:15:13.114Z,95.20
2022-08-22T12:18:01.721Z,95.40
2022-08-22T12:20:32.645Z,95.30
2022-08-22T12:23:18.712Z,95.50
2022-08-22T12:25:52.207Z,95.90
2022-08-22T12:28:25.648Z,96.00
2022-08-22T12:31:02.368Z,96.20
2022-08-22T12:33:45.125Z,96.40
2022-08-22T12:36:18.780Z,96.80
2022-08-22T12:38:47.785Z,96.40
2022-08-22T12:41:35.063Z,96.00
2022-08-22T12:44:16.424Z,96.20
2022-08-22T12:47:02.336Z,96.70
2022-08-22T12:49:38.545Z,97.30
2022-08-22T12:52:25.146Z,98.30
2022-08-22T12:54:52.602Z,98.70
2022-08-22T12:57:28.109Z,99.00
2022-08-22T13:00:15.903Z,99.50
2022-08-22T13:02:53.183Z,99.90
2022-08-22T13:05:23.304Z,99.90
2022-08-22T13:07:56.170Z,99.90
2022-08-22T13:10:42.888Z,99.90
2022-08-22T13:13:14.569Z,99.90
2022-08-22T13:15:46.694Z,99.90
2022-08-22T13:18:29.666Z,99.90
2022-08-22T13:21:00.947Z,99.90
2022-08-22T13:23:39.572Z,99.90
2022-08-22T13:26:32.168Z,99.90
2022-08-22T13:29:25.876Z,99.90
2022-08-22T13:31:59.048Z,99.90
2022-08-22T13:34:39.527Z,99.90
2022-08-22T13:37:12.154Z,99.90
2022-08-22T13:39:42.574Z,99.90
2022-08-22T13:42:20.309Z,99.90
2022-08-22T13:44:58.322Z,99.90
2022-08-22T13:47:27.005Z,99.90
2022-08-22T13:50:10.350Z,99.90
2022-08-22T13:52:55.099Z,99.90
2022-08-22T13:55:27.623Z,99.90
2022-08-22T13:58:12.595Z,99.90
2022-08-22T14:00:56.630Z,99.90
2022-08-22T14:03:28.894Z,99.90
2022-08-22T14:06:06.192Z,99.90
2022-08-22T14:08:45.810Z,99.90
2022-08-22T14:11:32.230Z,99.90
2022-08-22T14:14:02.281Z,99.90
2022-08-22T14:16:34.974Z,99.90
2022-08-22T14:19:06.775Z,99.90
2022-08-22T14:21:41.280Z,99.90
2022-08-22T14:24:11.923Z,99.90
2022-08-22T14:26:47.350Z,99.90
2022-08-22T14:29:16.574Z,99.90
2022-08-22T14:32:04.211Z,99.90
2022-08-22T14:34:33.675Z,99.90
2022-08-22T14:37:12.996Z,99.90
2022-08-22T14:40:02.215Z,99.90
2022-08-22T14:42:38.841Z,99.90
2022-08-22T14:45:20.117Z,99.90
2022-08-22T14:48:14.462Z,99.90
2022-08-22T14:50:55.073Z,99.90
2022-08-22T14:53:25.496Z,99.90
2022-08-22T14:56:01.306Z,99.90
2022-08-22T14:58:29.949Z,99.90
2022-08-22T15:00:57.785Z,99.90
2022-08-22T15:03:25.207Z,99.90
2022-08-22T15:05:54.697Z,99.90
2022-08-22T15:08:27.849Z,99.90
2022-08-22T15:11:05.986Z,99.90
2022-08-22T15:13:38.122Z,99.90
2022-08-22T15:16:20.589Z,99.90
2022-08-22T15:18:51.862Z,99.90
2022-08-22T15:21:24.509Z,99.90
2022-08-22T15:23:53.954Z,99.90
2022-08-22T15:26:24.921Z,99.90
2022-08-22T15:29:07.372Z,99.90
2022-08-22T15:31:36.114Z,99.90
2022-08-22T15:34:18.014Z,99.90
2022-08-22T15:37:07.801Z,99.90
2022-08-22T15:39:57.078Z,99.90
2022-08-22T15:42:25.876Z,99.90
2022-08-22T15:44:54.721Z,99.90
2022-08-22T15:47:36.258Z,99.90
2022-08-22T15:50:07.705Z,99.90
2022-08-22T15:53:04.637Z,99.90
2022-08-22T15:55:34.465Z,99.90
2022-08-22T15:58:08.246Z,99.90
2022-08-22T16:00:43.742Z,99.90
2022-08-22T16:03:23.448Z,99.90
2022-08-22T16:05:56.404Z,99.90
2022-08-22T16:08:33.253Z,99.90
2022-08-22T16:11:03.600Z,99.90
2022-08-22T16:13:31.082Z,99.90
2022-08-22T16:16:10.546Z,99.90
2022-08-22T16:18:39.330Z,99.90
2022-08-22T16:21:17.653Z,99.90
2022-08-22T16:23:51.275Z,99.90
2022-08-22T16:26:19.711Z,99.90
2022-08-22T16:28:58.805Z,99.90
2022-08-22T16:31:32.809Z,99.90
2022-08-22T16:34:20.586Z,99.90
2022-08-22T16:36:48.003Z,99.90
2022-08-22T16:39:21.408Z,99.90
2022-08-22T16:41:53.129Z,99.90
2022-08-22T16:44:23.320Z,99.90
2022-08-22T16:46:52.083Z,99.90
2022-08-22T16:49:28.462Z,99.90
2022-08-22T16:52:14.378Z,99.90
2022-08-22T16:54:43.920Z,99.90
2022-08-22T16:57:17.196Z,99.90
2022-08-22T16:59:53.584Z,99.90
2022-08-22T17:02:33.249Z,99.90
2022-08-22T17:05:04.252Z,99.90
2022-08-22T17:07:42.709Z,99.90
2022-08-22T17:10:27.132Z,99.90
2022-08-22T17:13:06.721Z,99.90
2022-08-22T17:15:36.619Z,99.90
2022-08-22T17:18:11.843Z,99.90
2022-08-22T17:21:05.068Z,99.90
2022-08-22T17:23:51.350Z,99.90
2022-08-22T17:26:26.471Z,99.90
2022-08-22T17:28:53.947Z,99.90
2022-08-22T17:31:36.930Z,99.90
2022-08-22T17:34:04.380Z,99.90
2022-08-22T17:36:50.517Z,99.90
2022-08-22T17:39:18.012Z,99.90
2022-08-22T17:41:50.209Z,99.90
2022-08-22T17:44:20.452Z,99.90
2022-08-22T17:46:54.309Z,99.90
2022-08-22T17:49:21.798Z,99.90
2022-08-22T17:51:49.091Z,99.90
2022-08-22T17:54:16.463Z,99.90
2022-08-22T17:57:00.349Z,99.90
2022-08-22T17:59:48.445Z,99.90
2022-08-22T18:02:18.926Z,99.90
2022-08-22T18:04:52.294Z,99.90
2022-08-22T18:07:28.798Z,99.90
2022-08-22T18:10:04.545Z,99.90
2022-08-22T18:12:34.287Z,99.90
2022-08-22T18:15:07.713Z,99.90
2022-08-22T18:17:41.696Z,99.90
2022-08-22T18:20:09.255Z,99.90
2022-08-22T18:22:39.394Z,99.90
2022-08-22T18:25:27.410Z,99.90
2022-08-22T18:28:06.945Z,99.90
2022-08-22T18:30:53.177Z,99.90
2022-08-22T18:33:31.016Z,99.90
2022-08-22T18:36:10.349Z,99.90
2022-08-22T18:38:37.795Z,99.90
2022-08-22T18:41:08.717Z,99.90
2022-08-22T18:43:41.689Z,99.90
2022-08-22T18:46:41.419Z,99.90
2022-08-22T18:49:15.972Z,99.90
2022-08-22T18:51:43.848Z,99.90
2022-08-22T18:54:11.481Z,99.90
2022-08-22T18:56:55.238Z,99.90
2022-08-22T18:59:41.121Z,99.90
2022-08-22T19:02:27.084Z,99.90
2022-08-22T19:04:57.547Z,99.90
2022-08-22T19:07:40.491Z,99.90
2022-08-22T19:10:32.132Z,99.90
2022-08-22T19:13:17.944Z,99.90
2022-08-22T19:15:45.309Z,99.90
2022-08-22T19:18:35.358Z,99.90
2022-08-22T19:21:33.785Z,99.90
2022-08-22T19:24:01.641Z,99.90
2022-08-22T19:26:32.143Z,99.90
2022-08-22T19:29:03.781Z,99.90
2022-08-22T19:31:37.166Z,99.90
2022-08-22T19:34:34.008Z,99.90
2022-08-22T19:37:30.795Z,99.90
2022-08-22T19:40:06.417Z,99.90
2022-08-22T19:42:35.245Z,99.90
2022-08-22T19:45:02.590Z,99.90
2022-08-22T19:47:35.078Z,99.90
2022-08-22T19:50:05.694Z,99.90
2022-08-22T19:52:39.762Z,99.90
2022-08-22T19:55:21.150Z,99.90
2022-08-22T19:58:07.205Z,99.90
2022-08-22T20:00:50.312Z,99.90
2022-08-22T20:03:32.418Z,99.90
2022-08-22T20:06:22.023Z,99.90
2022-08-22T20:09:15.212Z,99.90
2022-08-22T20:11:42.833Z,99.90
2022-08-22T20:14:24.979Z,99.90
2022-08-22T20:17:10.524Z,99.90
2022-08-22T20:22:53.289Z,99.90
2022-08-22T20:25:42.730Z,99.90
2022-08-22T20:28:10.412Z,99.90
2022-08-22T20:30:40.486Z,99.90
2022-08-22T20:33:13.986Z,99.90
2022-08-22T20:35:44.311Z,99.90
2022-08-22T20:38:16.179Z,99.90
2022-08-22T20:40:56.736Z,99.90
2022-08-22T20:43:34.090Z,99.90
2022-08-22T20:46:07.481Z,99.90
2022-08-22T20:48:41.209Z,99.90
2022-08-22T20:51:09.418Z,99.90
2022-08-22T20:53:36.840Z,99.90
2022-08-22T20:56:07.144Z,99.90
2022-08-22T20:58:37.579Z,99.90
2022-08-22T21:01:06.863Z,99.90
2022-08-22T21:03:37.645Z,99.90
2022-08-22T21:06:12.095Z,99.90
2022-08-22T21:08:39.792Z,99.90
2022-08-22T21:11:26.435Z,99.90
2022-08-22T21:13:54.823Z,99.90
2022-08-22T21:16:31.231Z,99.90
2022-08-22T21:19:03.263Z,99.90
2022-08-22T21:21:32.366Z,99.90
2022-08-22T21:24:01.847Z,99.90
2022-08-22T21:26:30.769Z,99.90
2022-08-22T21:28:58.329Z,99.90
2022-08-22T21:31:28.296Z,99.90
2022-08-22T21:33:57.009Z,99.90
2022-08-22T21:36:27.384Z,99.90
2022-08-22T21:39:03.742Z,99.90
2022-08-22T21:41:38.252Z,99.90
2022-08-22T21:44:17.668Z,99.90
2022-08-22T21:46:45.202Z,99.90
2022-08-22T21:49:20.095Z,99.90
2022-08-22T21:51:49.161Z,99.90
2022-08-22T21:54:20.640Z,99.90
2022-08-22T21:56:49.228Z,99.90
2022-08-22T21:59:50.459Z,99.90
2022-08-22T22:02:36.657Z,99.90
2022-08-22T22:05:08.113Z,99.90
2022-08-22T22:07:44.515Z,99.90
2022-08-22T22:10:14.418Z,99.90
2022-08-22T22:12:42.823Z,99.90
2022-08-22T22:15:12.746Z,99.90
2022-08-22T22:17:40.212Z,99.90
2022-08-22T22:20:07.867Z,99.90
2022-08-22T22:22:36.890Z,99.90
2022-08-22T22:25:40.263Z,99.90
2022-08-22T22:28:02.679Z,99.90
2022-08-22T22:30:30.173Z,99.90
2022-08-22T22:32:57.902Z,99.90
2022-08-22T22:35:25.309Z,99.90
2022-08-22T22:37:52.660Z,99.90
2022-08-22T22:40:20.213Z,99.90
2022-08-22T22:42:47.730Z,99.90
2022-08-22T22:45:15.034Z,99.90
2022-08-22T22:47:42.570Z,99.90
2022-08-22T22:50:10.050Z,99.90
2022-08-22T22:52:40.665Z,99.90
2022-08-22T22:55:08.952Z,99.90
2022-08-22T22:57:42.360Z,99.90
2022-08-22T23:00:12.277Z,99.90
2022-08-22T23:02:39.781Z,99.90
2022-08-22T23:05:07.814Z,99.90
2022-08-22T23:07:35.260Z,99.90
2022-08-22T23:10:05.252Z,99.90
2022-08-22T23:12:34.460Z,99.90
2022-08-22T23:15:02.003Z,99.90
2022-08-22T23:17:29.795Z,99.90
2022-08-22T23:19:57.103Z,99.90
2022-08-22T23:22:24.638Z,99.90
2022-08-22T23:24:52.044Z,99.90
2022-08-22T23:27:19.471Z,99.90
2022-08-22T23:29:47.062Z,99.90
2022-08-22T23:32:14.731Z,99.90
2022-08-22T23:34:45.848Z,99.90
2022-08-22T23:37:14.527Z,99.90
2022-08-22T23:39:42.316Z,99.90
2022-08-22T23:42:10.165Z,99.90
2022-08-22T23:44:38.325Z,99.90
2022-08-22T23:47:06.466Z,99.90
2022-08-22T23:49:34.315Z,99.90
2022-08-22T23:52:01.758Z,99.90
2022-08-22T23:54:29.171Z,99.90
2022-08-22T23:56:57.635Z,99.90
2022-08-22T23:59:29.045Z,99.90
